Aviation Digital Data Service (ADDS)

Output produced by METARs form (0253 UTC 21 August 2017)
found at http://aviationweather.gov/adds/metars/
 
KAOO 210248Z 2103/2124 00000KT P6SM SCT250 
     FM210700 00000KT 5SM BR VCFG SCT250 
     FM211200 22005KT P6SM SCT050 
     FM211700 24006KT P6SM VCSH SCT060